createdAt,value
2023-03-14T00:00:01.704Z,10.98
2023-03-14T00:01:01.912Z,10.99
2023-03-14T00:02:01.731Z,10.98
2023-03-14T00:03:01.686Z,10.98
2023-03-14T00:04:01.818Z,10.98
2023-03-14T00:05:01.660Z,10.96
2023-03-14T00:06:01.640Z,10.98
2023-03-14T00:07:01.636Z,10.96
2023-03-14T00:08:01.650Z,10.96
2023-03-14T00:09:01.643Z,10.96
2023-03-14T00:10:01.651Z,10.95
2023-03-14T00:11:01.669Z,10.94
2023-03-14T00:12:01.571Z,10.95
2023-03-14T00:13:02.472Z,10.95
2023-03-14T00:14:01.714Z,10.94
2023-03-14T00:15:01.726Z,10.94
2023-03-14T00:16:01.755Z,10.94
2023-03-14T00:17:01.705Z,10.95
2023-03-14T00:18:01.509Z,10.94
2023-03-14T00:19:01.645Z,10.95
2023-03-14T00:20:02.168Z,10.95
2023-03-14T00:21:01.488Z,10.94
2023-03-14T00:22:01.504Z,10.94
2023-03-14T00:23:01.476Z,10.94
2023-03-14T00:24:01.557Z,10.91
2023-03-14T00:25:01.537Z,10.92
2023-03-14T00:26:01.421Z,10.91
2023-03-14T00:27:01.419Z,10.92
2023-03-14T00:28:01.410Z,10.91
2023-03-14T00:29:01.408Z,10.92
2023-03-14T00:30:01.360Z,10.92
2023-03-14T00:31:01.462Z,10.92
2023-03-14T00:32:01.448Z,10.91
2023-03-14T00:33:01.420Z,10.88
2023-03-14T00:34:01.344Z,10.88
2023-03-14T00:35:01.320Z,10.88
2023-03-14T00:36:01.346Z,10.86
2023-03-14T00:37:01.475Z,10.88
2023-03-14T00:38:01.376Z,10.89
2023-03-14T00:39:01.274Z,10.89
2023-03-14T00:40:01.359Z,10.91
2023-03-14T00:41:01.267Z,10.94
2023-03-14T00:42:01.219Z,10.91
2023-03-14T00:43:01.295Z,10.91
2023-03-14T00:44:01.194Z,10.91
2023-03-14T00:45:01.315Z,10.91
2023-03-14T00:46:01.222Z,10.89
2023-03-14T00:47:01.280Z,10.91
2023-03-14T00:48:01.245Z,10.91
2023-03-14T00:49:01.297Z,10.92
2023-03-14T00:50:01.181Z,10.94
2023-03-14T00:51:01.209Z,10.92
2023-03-14T00:52:01.187Z,10.92
2023-03-14T00:53:01.173Z,10.91
2023-03-14T00:54:01.098Z,10.92
2023-03-14T00:55:01.179Z,10.91
2023-03-14T00:56:01.077Z,10.91
2023-03-14T00:57:01.079Z,10.89
2023-03-14T00:58:01.217Z,10.88
2023-03-14T00:59:01.080Z,10.89
2023-03-14T01:00:01.017Z,10.89
2023-03-14T01:01:01.040Z,10.88
2023-03-14T01:02:01.077Z,10.88
2023-03-14T01:03:01.155Z,10.88
2023-03-14T01:04:00.989Z,10.86
2023-03-14T01:05:01.055Z,10.88
2023-03-14T01:06:00.969Z,10.86
2023-03-14T01:07:00.982Z,10.84
2023-03-14T01:08:00.998Z,10.84
2023-03-14T01:09:00.950Z,10.84
2023-03-14T01:10:01.025Z,10.84
2023-03-14T01:11:00.943Z,10.84
2023-03-14T01:12:00.887Z,10.81
2023-03-14T01:13:00.924Z,10.81
2023-03-14T01:14:00.978Z,10.80
2023-03-14T01:15:00.920Z,10.80
2023-03-14T01:16:00.971Z,10.77
2023-03-14T01:17:00.896Z,10.77
2023-03-14T01:18:00.912Z,10.76
2023-03-14T01:19:00.875Z,10.74
2023-03-14T01:20:01.071Z,10.74
2023-03-14T01:21:00.839Z,10.74
2023-03-14T01:22:00.899Z,10.74
2023-03-14T01:23:00.848Z,10.76
2023-03-14T01:24:00.950Z,10.73
2023-03-14T01:25:00.804Z,10.73
2023-03-14T01:26:00.846Z,10.73
2023-03-14T01:27:00.841Z,10.74
2023-03-14T01:28:00.739Z,10.73
2023-03-14T01:29:00.763Z,10.74
2023-03-14T01:30:00.733Z,10.74
2023-03-14T01:31:00.879Z,10.74
2023-03-14T01:32:00.693Z,10.76
2023-03-14T01:33:00.711Z,10.74
2023-03-14T01:34:00.672Z,10.76
2023-03-14T01:35:00.705Z,10.73
2023-03-14T01:36:00.709Z,10.73
2023-03-14T01:37:00.705Z,10.71
2023-03-14T01:38:00.624Z,10.71
2023-03-14T01:39:00.662Z,10.71
2023-03-14T01:40:00.639Z,10.68
2023-03-14T01:41:00.666Z,10.70
2023-03-14T01:42:00.675Z,10.70
2023-03-14T01:43:00.599Z,10.70
2023-03-14T01:44:00.561Z,10.66
2023-03-14T01:45:00.586Z,10.65
2023-03-14T01:46:00.630Z,10.63
2023-03-14T01:47:00.593Z,10.62
2023-03-14T01:48:00.530Z,10.62
2023-03-14T01:49:00.551Z,10.60
2023-03-14T01:50:00.511Z,10.62
2023-03-14T01:51:00.515Z,10.62
2023-03-14T01:52:00.514Z,10.62
2023-03-14T01:53:00.507Z,10.59
2023-03-14T01:54:00.464Z,10.60
2023-03-14T01:55:00.510Z,10.59
2023-03-14T01:56:00.450Z,10.58
2023-03-14T01:57:00.439Z,10.58
2023-03-14T01:58:00.394Z,10.59
2023-03-14T01:59:00.407Z,10.58
2023-03-14T02:00:00.445Z,10.59
2023-03-14T02:01:07.502Z,10.60
2023-03-14T02:02:00.605Z,10.62
2023-03-14T02:03:00.462Z,10.63
2023-03-14T02:04:00.357Z,10.63
2023-03-14T02:05:00.358Z,10.65
2023-03-14T02:06:00.333Z,10.68
2023-03-14T02:07:00.320Z,10.70
2023-03-14T02:08:00.308Z,10.70
2023-03-14T02:09:00.356Z,10.71
2023-03-14T02:10:00.274Z,10.73
2023-03-14T02:11:00.276Z,10.76
2023-03-14T02:12:00.262Z,10.73
2023-03-14T02:13:00.243Z,10.73
2023-03-14T02:14:00.237Z,10.74
2023-03-14T02:15:00.205Z,10.76
2023-03-14T02:16:00.303Z,10.76
2023-03-14T02:17:00.179Z,10.77
2023-03-14T02:18:00.214Z,10.77
2023-03-14T02:19:00.168Z,10.78
2023-03-14T02:20:00.171Z,10.78
2023-03-14T02:21:00.138Z,10.80
2023-03-14T02:22:00.169Z,10.78
2023-03-14T02:23:00.132Z,10.81
2023-03-14T02:24:00.157Z,10.83
2023-03-14T02:25:00.101Z,10.81
2023-03-14T02:26:00.179Z,10.84
2023-03-14T02:27:00.097Z,10.89
2023-03-14T02:28:00.163Z,10.89
2023-03-14T02:29:00.060Z,10.89
2023-03-14T02:30:00.129Z,10.89
2023-03-14T02:31:00.029Z,10.92
2023-03-14T02:32:00.142Z,10.94
2023-03-14T02:33:00.217Z,10.89
2023-03-14T02:34:00.041Z,10.94
2023-03-14T02:35:00.007Z,10.92
2023-03-14T02:36:00.112Z,10.92
2023-03-14T02:36:59.953Z,10.95
2023-03-14T02:37:59.992Z,10.96
2023-03-14T02:38:59.931Z,10.95
2023-03-14T02:39:59.952Z,10.94
2023-03-14T02:40:59.913Z,10.96
2023-03-14T02:41:59.942Z,10.95
2023-03-14T02:42:59.882Z,10.95
2023-03-14T02:43:59.930Z,10.98
2023-03-14T02:44:59.893Z,10.96
2023-03-14T02:45:59.968Z,10.98
2023-03-14T02:46:59.849Z,10.98
2023-03-14T02:47:59.870Z,10.96
2023-03-14T02:48:59.835Z,10.99
2023-03-14T02:49:59.832Z,10.96
2023-03-14T02:50:59.816Z,10.98
2023-03-14T02:51:59.813Z,10.95
2023-03-14T02:52:59.794Z,10.98
2023-03-14T02:53:59.786Z,10.96
2023-03-14T02:54:59.754Z,10.96
2023-03-14T02:55:59.776Z,10.96
2023-03-14T02:56:59.725Z,10.95
2023-03-14T02:57:59.772Z,10.95
2023-03-14T02:58:59.707Z,10.96
2023-03-14T02:59:59.726Z,10.96
2023-03-14T03:00:59.761Z,10.98
2023-03-14T03:01:59.692Z,10.99
2023-03-14T03:02:59.708Z,10.98
2023-03-14T03:03:59.693Z,11.01
2023-03-14T03:04:59.654Z,11.01
2023-03-14T03:05:59.683Z,11.01
2023-03-14T03:06:59.634Z,11.01
2023-03-14T03:07:59.634Z,11.01
2023-03-14T03:08:59.651Z,11.03
2023-03-14T03:09:59.624Z,11.01
2023-03-14T03:10:59.619Z,11.03
2023-03-14T03:11:59.597Z,11.03
2023-03-14T03:12:59.581Z,11.02
2023-03-14T03:13:59.570Z,11.06
2023-03-14T03:14:59.539Z,11.06
2023-03-14T03:16:00.506Z,11.03
2023-03-14T03:16:59.583Z,11.06
2023-03-14T03:17:59.530Z,11.07
2023-03-14T03:18:59.509Z,11.07
2023-03-14T03:19:59.500Z,11.07
2023-03-14T03:20:59.477Z,11.06
2023-03-14T03:21:59.484Z,11.06
2023-03-14T03:22:59.467Z,11.07
2023-03-14T03:23:59.458Z,11.07
2023-03-14T03:24:59.430Z,11.09
2023-03-14T03:25:59.444Z,11.11
2023-03-14T03:26:59.414Z,11.09
2023-03-14T03:27:59.435Z,11.09
2023-03-14T03:28:59.388Z,11.09
2023-03-14T03:29:59.432Z,11.10
2023-03-14T03:30:59.554Z,11.10
2023-03-14T03:31:59.378Z,11.09
2023-03-14T03:32:59.468Z,11.09
2023-03-14T03:33:59.419Z,11.09
2023-03-14T03:34:59.338Z,11.10
2023-03-14T03:35:59.430Z,11.09
2023-03-14T03:36:59.337Z,11.09
2023-03-14T03:37:59.333Z,11.10
2023-03-14T03:38:59.295Z,11.11
2023-03-14T03:39:59.299Z,11.10
2023-03-14T03:40:59.307Z,11.07
2023-03-14T03:41:59.299Z,11.07
2023-03-14T03:42:59.261Z,11.07
2023-03-14T03:43:59.289Z,11.07
2023-03-14T03:44:59.233Z,11.07
2023-03-14T03:45:59.283Z,11.07
2023-03-14T03:46:59.218Z,11.06
2023-03-14T03:47:59.247Z,11.07
2023-03-14T03:48:59.219Z,11.06
2023-03-14T03:49:59.223Z,11.03
2023-03-14T03:50:59.166Z,11.02
2023-03-14T03:51:59.184Z,11.03
2023-03-14T03:52:59.145Z,11.03
2023-03-14T03:53:59.152Z,11.02
2023-03-14T03:54:59.162Z,11.03
2023-03-14T03:55:59.134Z,11.03
2023-03-14T03:56:59.122Z,11.06
2023-03-14T03:57:59.120Z,11.02
2023-03-14T03:58:59.171Z,11.02
2023-03-14T03:59:59.151Z,11.03
2023-03-14T04:00:59.088Z,11.03
2023-03-14T04:01:59.072Z,11.02
2023-03-14T04:02:59.042Z,11.02
2023-03-14T04:03:59.099Z,11.03
2023-03-14T04:04:59.014Z,11.03
2023-03-14T04:06:00.007Z,11.03
2023-03-14T04:06:59.034Z,11.02
2023-03-14T04:07:59.002Z,11.01
2023-03-14T04:08:59.003Z,10.99
2023-03-14T04:09:58.999Z,10.98
2023-03-14T04:10:58.961Z,10.96
2023-03-14T04:11:58.984Z,10.98
2023-03-14T04:12:58.935Z,10.96
2023-03-14T04:13:58.938Z,10.95
2023-03-14T04:14:58.916Z,10.96
2023-03-14T04:15:58.948Z,10.96
2023-03-14T04:16:59.310Z,10.94
2023-03-14T04:17:58.907Z,10.92
2023-03-14T04:18:58.884Z,10.91
2023-03-14T04:19:59.400Z,10.92
2023-03-14T04:20:58.843Z,10.89
2023-03-14T04:21:58.833Z,10.89
2023-03-14T04:22:58.806Z,10.89
2023-03-14T04:23:59.490Z,10.91
2023-03-14T04:24:58.804Z,10.89
2023-03-14T04:25:58.804Z,10.89
2023-03-14T04:26:58.763Z,10.88
2023-03-14T04:27:58.768Z,10.89
2023-03-14T04:28:58.731Z,10.88
2023-03-14T04:29:58.772Z,10.88
2023-03-14T04:30:58.767Z,10.89
2023-03-14T04:31:58.737Z,10.88
2023-03-14T04:32:58.775Z,10.88
2023-03-14T04:33:58.716Z,10.88
2023-03-14T04:34:58.684Z,10.89
2023-03-14T04:35:58.832Z,10.89
2023-03-14T04:37:00.125Z,10.92
2023-03-14T04:38:00.110Z,10.92
2023-03-14T04:38:59.605Z,10.91
2023-03-14T04:39:58.642Z,10.91
2023-03-14T04:40:58.605Z,10.92
2023-03-14T04:41:58.617Z,10.92
2023-03-14T04:42:58.564Z,10.92
2023-03-14T04:43:58.582Z,10.91
2023-03-14T04:44:58.551Z,10.92
2023-03-14T04:45:58.563Z,10.91
2023-03-14T04:46:58.604Z,10.92
2023-03-14T04:47:58.538Z,10.92
2023-03-14T04:48:58.578Z,10.92
2023-03-14T04:49:58.514Z,10.92
2023-03-14T04:50:58.481Z,10.92
2023-03-14T04:51:58.520Z,10.91
2023-03-14T04:52:59.408Z,10.92
2023-03-14T04:53:58.480Z,10.91
2023-03-14T04:54:58.436Z,10.89
2023-03-14T04:55:58.452Z,10.91
2023-03-14T04:56:58.411Z,10.88
2023-03-14T04:57:58.440Z,10.86
2023-03-14T04:58:58.434Z,10.83
2023-03-14T04:59:58.405Z,10.78
2023-03-14T05:00:58.371Z,10.76
2023-03-14T05:01:58.441Z,10.74
2023-03-14T05:02:58.391Z,10.71
2023-03-14T05:03:58.387Z,10.68
2023-03-14T05:04:58.330Z,10.65
2023-03-14T05:05:58.343Z,10.60
2023-03-14T05:06:58.325Z,10.56
2023-03-14T05:07:58.317Z,10.51
2023-03-14T05:08:58.287Z,10.42
2023-03-14T05:09:59.255Z,10.36
2023-03-14T05:10:58.260Z,10.34
2023-03-14T05:11:58.270Z,10.30
2023-03-14T05:12:58.227Z,10.26
2023-03-14T05:13:58.246Z,10.24
2023-03-14T05:14:58.213Z,10.24
2023-03-14T05:15:58.271Z,10.19
2023-03-14T05:16:58.188Z,10.15
2023-03-14T05:17:58.234Z,10.14
2023-03-14T05:18:58.183Z,10.14
2023-03-14T05:19:58.181Z,10.14
2023-03-14T05:20:58.144Z,10.10
2023-03-14T05:21:58.164Z,10.09
2023-03-14T05:22:58.114Z,10.07
2023-03-14T05:23:58.160Z,10.07
2023-03-14T05:24:58.105Z,10.04
2023-03-14T05:25:58.126Z,10.03
2023-03-14T05:26:58.078Z,10.01
2023-03-14T05:27:58.111Z,10.00
2023-03-14T05:28:58.049Z,9.97
2023-03-14T05:29:58.076Z,9.96
2023-03-14T05:30:58.037Z,9.96
2023-03-14T05:31:58.046Z,9.91
2023-03-14T05:32:58.128Z,9.93
2023-03-14T05:33:58.034Z,9.91
2023-03-14T05:34:58.001Z,9.89
2023-03-14T05:35:58.064Z,9.89
2023-03-14T05:36:57.973Z,9.88
2023-03-14T05:37:58.001Z,9.86
2023-03-14T05:38:57.953Z,9.86
2023-03-14T05:39:58.000Z,9.88
2023-03-14T05:40:57.941Z,9.88
2023-03-14T05:41:57.945Z,9.89
2023-03-14T05:42:57.914Z,9.93
2023-03-14T05:43:57.926Z,9.91
2023-03-14T05:44:57.899Z,9.94
2023-03-14T05:45:57.929Z,9.93
2023-03-14T05:46:57.865Z,9.93
2023-03-14T05:47:57.890Z,9.94
2023-03-14T05:48:57.866Z,9.96
2023-03-14T05:49:57.861Z,9.97
2023-03-14T05:50:57.828Z,9.99
2023-03-14T05:51:57.844Z,9.99
2023-03-14T05:52:57.811Z,10.03
2023-03-14T05:53:57.829Z,10.03
2023-03-14T05:54:57.777Z,10.07
2023-03-14T05:55:58.292Z,10.06
2023-03-14T05:56:57.769Z,10.07
2023-03-14T05:57:58.703Z,10.10
2023-03-14T05:58:57.745Z,10.14
2023-03-14T05:59:57.741Z,10.15
2023-03-14T06:00:57.708Z,10.15
2023-03-14T06:01:57.747Z,10.17
2023-03-14T06:02:57.891Z,10.18
2023-03-14T06:03:57.710Z,10.19
2023-03-14T06:04:57.658Z,10.22
2023-03-14T06:05:57.774Z,10.22
2023-03-14T06:06:57.689Z,10.24
2023-03-14T06:07:57.697Z,10.24
2023-03-14T06:08:57.619Z,10.25
2023-03-14T06:09:58.578Z,10.26
2023-03-14T06:10:57.600Z,10.28
2023-03-14T06:11:57.630Z,10.30
2023-03-14T06:12:57.581Z,10.32
2023-03-14T06:13:57.592Z,10.34
2023-03-14T06:14:57.571Z,10.34
2023-03-14T06:15:57.598Z,10.37
2023-03-14T06:16:57.639Z,10.39
2023-03-14T06:17:57.543Z,10.39
2023-03-14T06:18:57.515Z,10.40
2023-03-14T06:19:57.546Z,10.42
2023-03-14T06:20:57.539Z,10.40
2023-03-14T06:21:57.483Z,10.40
2023-03-14T06:22:57.473Z,10.42
2023-03-14T06:23:57.477Z,10.44
2023-03-14T06:24:58.683Z,10.46
2023-03-14T06:25:58.398Z,10.44
2023-03-14T06:26:57.433Z,10.51
2023-03-14T06:27:57.414Z,10.52
2023-03-14T06:28:57.447Z,10.52
2023-03-14T06:29:58.336Z,10.52
2023-03-14T06:30:57.444Z,10.56
2023-03-14T06:31:57.380Z,10.56
2023-03-14T06:32:58.401Z,10.58
2023-03-14T06:33:57.377Z,10.59
2023-03-14T06:34:57.356Z,10.62
2023-03-14T06:35:57.328Z,10.62
2023-03-14T06:36:57.329Z,10.63
2023-03-14T06:37:57.328Z,10.63
2023-03-14T06:38:57.322Z,10.63
2023-03-14T06:39:57.295Z,10.65
2023-03-14T06:40:57.305Z,10.66
2023-03-14T06:41:57.263Z,10.68
2023-03-14T06:42:57.273Z,10.68
2023-03-14T06:43:57.237Z,10.66
2023-03-14T06:44:57.254Z,10.68
2023-03-14T06:45:57.252Z,10.68
2023-03-14T06:46:57.221Z,10.68
2023-03-14T06:47:57.193Z,10.70
2023-03-14T06:48:57.232Z,10.68
2023-03-14T06:49:57.225Z,10.70
2023-03-14T06:50:57.210Z,10.71
2023-03-14T06:51:57.147Z,10.71
2023-03-14T06:52:57.262Z,10.73
2023-03-14T06:53:57.134Z,10.76
2023-03-14T06:54:57.137Z,10.76
2023-03-14T06:55:57.122Z,10.80
2023-03-14T06:56:57.124Z,10.81
2023-03-14T06:57:57.078Z,10.83
2023-03-14T06:58:57.118Z,10.81
2023-03-14T06:59:57.080Z,10.83
2023-03-14T07:00:57.090Z,10.88
2023-03-14T07:01:57.034Z,10.92
2023-03-14T07:02:59.708Z,10.95
2023-03-14T07:03:57.059Z,10.99
2023-03-14T07:04:57.061Z,11.03
2023-03-14T07:05:57.029Z,11.07
2023-03-14T07:06:57.045Z,11.10
2023-03-14T07:07:57.334Z,11.11
2023-03-14T07:08:56.979Z,11.10
2023-03-14T07:09:56.973Z,11.10
2023-03-14T07:10:56.975Z,11.09
2023-03-14T07:11:56.977Z,11.07
2023-03-14T07:12:57.017Z,11.03
2023-03-14T07:13:56.922Z,11.07
2023-03-14T07:14:59.103Z,11.07
2023-03-14T07:15:57.886Z,11.06
2023-03-14T07:16:56.951Z,11.03
2023-03-14T07:17:56.886Z,11.03
2023-03-14T07:18:56.925Z,11.02
2023-03-14T07:19:56.863Z,11.02
2023-03-14T07:20:56.853Z,11.02
2023-03-14T07:21:56.865Z,11.03
2023-03-14T07:22:56.855Z,11.06
2023-03-14T07:23:56.828Z,11.03
2023-03-14T07:24:56.825Z,11.03
2023-03-14T07:25:56.799Z,11.06
2023-03-14T07:26:56.813Z,11.06
2023-03-14T07:27:56.771Z,11.07
2023-03-14T07:28:56.787Z,11.09
2023-03-14T07:29:56.726Z,11.09
2023-03-14T07:30:56.818Z,11.13
2023-03-14T07:31:56.723Z,11.11
2023-03-14T07:32:56.809Z,11.16
2023-03-14T07:33:56.692Z,11.17
2023-03-14T07:34:56.696Z,11.19
2023-03-14T07:35:56.727Z,11.20
2023-03-14T07:36:56.684Z,11.20
2023-03-14T07:37:56.640Z,11.20
2023-03-14T07:38:56.675Z,11.19
2023-03-14T07:39:56.640Z,11.19
2023-03-14T07:40:56.656Z,11.20
2023-03-14T07:41:56.937Z,11.24
2023-03-14T07:42:56.618Z,11.27
2023-03-14T07:43:56.605Z,11.28
2023-03-14T07:44:56.620Z,11.32
2023-03-14T07:45:59.711Z,11.34
2023-03-14T07:46:56.683Z,11.34
2023-03-14T07:47:56.544Z,11.36
2023-03-14T07:48:56.561Z,11.39
2023-03-14T07:49:56.590Z,11.43
2023-03-14T07:50:56.543Z,11.44
2023-03-14T07:51:56.497Z,11.47
2023-03-14T07:52:56.523Z,11.49
2023-03-14T07:53:56.514Z,11.50
2023-03-14T07:54:56.493Z,11.53
2023-03-14T07:55:56.467Z,11.52
2023-03-14T07:56:56.489Z,11.54
2023-03-14T07:57:56.430Z,11.62
2023-03-14T07:58:56.449Z,11.59
2023-03-14T07:59:56.458Z,11.57
2023-03-14T08:00:56.429Z,11.57
2023-03-14T08:01:56.392Z,11.59
2023-03-14T08:02:56.443Z,11.59
2023-03-14T08:03:56.444Z,11.59
2023-03-14T08:04:56.376Z,11.57
2023-03-14T08:05:56.346Z,11.53
2023-03-14T08:06:56.346Z,11.52
2023-03-14T08:07:56.304Z,11.47
2023-03-14T08:08:56.344Z,11.44
2023-03-14T08:09:56.298Z,11.43
2023-03-14T08:10:56.339Z,11.43
2023-03-14T08:11:58.250Z,11.39
2023-03-14T08:12:56.307Z,11.36
2023-03-14T08:13:56.243Z,11.38
2023-03-14T08:14:56.278Z,11.38
2023-03-14T08:15:56.295Z,11.34
2023-03-14T08:16:56.269Z,11.36
2023-03-14T08:17:56.207Z,11.36
2023-03-14T08:18:56.235Z,11.34
2023-03-14T08:19:56.233Z,11.32
2023-03-14T08:20:56.269Z,11.32
2023-03-14T08:21:56.284Z,11.32
2023-03-14T08:22:56.201Z,11.34
2023-03-14T08:23:56.133Z,11.34
2023-03-14T08:24:56.144Z,11.35
2023-03-14T08:25:56.131Z,11.39
2023-03-14T08:26:56.122Z,11.46
2023-03-14T08:27:56.127Z,11.46
2023-03-14T08:28:56.103Z,11.44
2023-03-14T08:29:56.090Z,11.41
2023-03-14T08:30:56.115Z,11.43
2023-03-14T08:31:56.167Z,11.46
2023-03-14T08:32:56.154Z,11.46
2023-03-14T08:33:56.075Z,11.50
2023-03-14T08:34:56.037Z,11.56
2023-03-14T08:35:56.038Z,11.62
2023-03-14T08:36:56.064Z,11.65
2023-03-14T08:37:56.005Z,11.70
2023-03-14T08:38:56.058Z,11.71
2023-03-14T08:39:55.973Z,11.68
2023-03-14T08:40:55.968Z,11.67
2023-03-14T08:41:55.954Z,11.68
2023-03-14T08:42:55.956Z,11.71
2023-03-14T08:43:55.970Z,11.74
2023-03-14T08:44:57.424Z,11.80
2023-03-14T08:45:55.921Z,11.82
2023-03-14T08:46:55.996Z,11.85
2023-03-14T08:47:55.909Z,11.89
2023-03-14T08:48:55.912Z,11.90
2023-03-14T08:49:55.898Z,11.99
2023-03-14T08:50:55.880Z,12.02
2023-03-14T08:51:55.869Z,12.02
2023-03-14T08:52:55.931Z,12.06
2023-03-14T08:53:55.878Z,12.12
2023-03-14T08:54:55.817Z,12.23
2023-03-14T08:55:55.807Z,12.33
2023-03-14T08:56:55.820Z,12.38
2023-03-14T08:57:56.241Z,12.41
2023-03-14T08:58:55.930Z,12.39
2023-03-14T08:59:55.761Z,12.41
2023-03-14T09:00:55.847Z,12.44
2023-03-14T09:01:55.803Z,12.45
2023-03-14T09:02:55.829Z,12.42
2023-03-14T09:03:55.776Z,12.39
2023-03-14T09:04:55.755Z,12.38
2023-03-14T09:05:55.740Z,12.34
2023-03-14T09:06:55.787Z,12.39
2023-03-14T09:07:55.676Z,12.44
2023-03-14T09:08:55.845Z,12.49
2023-03-14T09:09:55.657Z,12.54
2023-03-14T09:10:55.665Z,12.46
2023-03-14T09:11:55.626Z,12.48
2023-03-14T09:12:55.632Z,12.51
2023-03-14T09:13:55.608Z,12.56
2023-03-14T09:14:55.609Z,12.69
2023-03-14T09:15:55.565Z,12.75
2023-03-14T09:16:55.661Z,12.77
2023-03-14T09:17:55.553Z,12.81
2023-03-14T09:18:55.542Z,12.85
2023-03-14T09:19:55.553Z,12.87
2023-03-14T09:20:56.492Z,12.88
2023-03-14T09:21:55.514Z,12.85
2023-03-14T09:22:55.502Z,12.85
2023-03-14T09:23:55.461Z,12.85
2023-03-14T09:24:55.491Z,12.85
2023-03-14T09:25:55.551Z,12.85
2023-03-14T09:26:55.560Z,12.97
2023-03-14T09:27:55.430Z,13.06
2023-03-14T09:28:57.593Z,13.09
2023-03-14T09:29:55.555Z,13.06
2023-03-14T09:30:55.458Z,13.02
2023-03-14T09:31:55.452Z,12.95
2023-03-14T09:32:55.494Z,12.95
2023-03-14T09:33:55.392Z,12.93
2023-03-14T09:34:55.376Z,12.88
2023-03-14T09:35:55.403Z,12.84
2023-03-14T09:36:55.554Z,12.84
2023-03-14T09:37:55.377Z,12.81
2023-03-14T09:38:55.337Z,12.75
2023-03-14T09:39:55.555Z,12.69
2023-03-14T09:40:56.780Z,12.67
2023-03-14T09:41:56.740Z,12.66
2023-03-14T09:42:55.308Z,12.67
2023-03-14T09:43:55.293Z,12.77
2023-03-14T09:44:55.278Z,12.81
2023-03-14T09:45:55.458Z,12.79
2023-03-14T09:46:55.281Z,12.85
2023-03-14T09:47:59.515Z,12.89
2023-03-14T09:48:55.239Z,12.95
2023-03-14T09:49:55.250Z,13.02
2023-03-14T09:50:55.201Z,12.97
2023-03-14T09:51:55.229Z,12.97
2023-03-14T09:52:55.244Z,13.03
2023-03-14T09:53:55.289Z,13.03
2023-03-14T09:54:55.433Z,13.04
2023-03-14T09:55:55.246Z,13.06
2023-03-14T09:56:55.150Z,13.04
2023-03-14T09:57:55.151Z,13.03
2023-03-14T09:58:55.126Z,12.95
2023-03-14T09:59:55.086Z,12.88
2023-03-14T10:00:55.622Z,12.87
2023-03-14T10:01:55.046Z,12.92
2023-03-14T10:02:55.077Z,12.97
2023-03-14T10:03:55.068Z,13.04
2023-03-14T10:04:55.037Z,13.06
2023-03-14T10:05:55.043Z,13.11
2023-03-14T10:06:55.031Z,13.11
2023-03-14T10:07:54.982Z,13.12
2023-03-14T10:08:54.999Z,13.09
2023-03-14T10:09:54.966Z,13.07
2023-03-14T10:10:55.021Z,13.06
2023-03-14T10:11:54.960Z,13.09
2023-03-14T10:12:55.969Z,13.11
2023-03-14T10:13:54.942Z,13.12
2023-03-14T10:14:54.960Z,13.11
2023-03-14T10:15:54.882Z,13.12
2023-03-14T10:16:54.969Z,13.14
2023-03-14T10:17:55.115Z,13.17
2023-03-14T10:18:54.910Z,13.15
2023-03-14T10:19:54.845Z,13.15
2023-03-14T10:20:54.866Z,13.15
2023-03-14T10:21:54.814Z,13.14
2023-03-14T10:22:54.849Z,13.11
2023-03-14T10:23:54.802Z,13.09
2023-03-14T10:24:54.796Z,13.06
2023-03-14T10:25:54.802Z,13.02
2023-03-14T10:26:54.783Z,12.92
2023-03-14T10:27:54.741Z,12.93
2023-03-14T10:28:54.760Z,12.96
2023-03-14T10:29:54.769Z,12.95
2023-03-14T10:30:54.835Z,12.97
2023-03-14T10:31:54.926Z,12.97
2023-03-14T10:32:54.846Z,13.00
2023-03-14T10:33:54.684Z,12.99
2023-03-14T10:34:54.696Z,12.99
2023-03-14T10:35:54.734Z,13.02
2023-03-14T10:36:54.696Z,13.11
2023-03-14T10:37:54.653Z,13.22
2023-03-14T10:38:54.650Z,13.18
2023-03-14T10:39:54.620Z,13.20
2023-03-14T10:40:54.694Z,13.17
2023-03-14T10:41:54.627Z,13.07
2023-03-14T10:42:54.620Z,13.11
2023-03-14T10:43:54.631Z,13.15
2023-03-14T10:44:54.578Z,13.17
2023-03-14T10:45:54.764Z,13.18
2023-03-14T10:46:54.570Z,13.21
2023-03-14T10:47:54.570Z,13.24
2023-03-14T10:48:54.532Z,13.27
2023-03-14T10:49:54.541Z,13.33
2023-03-14T10:50:54.548Z,13.41
2023-03-14T10:51:56.006Z,13.46
2023-03-14T10:53:03.139Z,13.49
2023-03-14T10:53:55.567Z,13.52
2023-03-14T10:54:54.479Z,13.58
2023-03-14T10:55:54.524Z,13.63
2023-03-14T10:56:54.437Z,13.69
2023-03-14T10:57:54.470Z,13.61
2023-03-14T10:58:54.430Z,13.59
2023-03-14T10:59:54.447Z,13.61
2023-03-14T11:00:54.508Z,13.62
2023-03-14T11:01:54.440Z,13.59
2023-03-14T11:02:54.393Z,13.55
2023-03-14T11:03:54.381Z,13.52
2023-03-14T11:04:54.365Z,13.49
2023-03-14T11:05:54.373Z,13.44
2023-03-14T11:06:54.332Z,13.38
2023-03-14T11:07:54.336Z,13.36
2023-03-14T11:08:54.338Z,13.33
2023-03-14T11:09:54.314Z,13.30
2023-03-14T11:10:54.309Z,13.24
2023-03-14T11:11:54.291Z,13.17
2023-03-14T11:12:54.278Z,13.14
2023-03-14T11:13:54.268Z,13.07
2023-03-14T11:14:54.240Z,13.06
2023-03-14T11:15:54.336Z,13.02
2023-03-14T11:16:54.223Z,12.97
2023-03-14T11:17:54.222Z,12.99
2023-03-14T11:18:54.195Z,13.03
2023-03-14T11:19:54.258Z,13.03
2023-03-14T11:20:54.176Z,13.04
2023-03-14T11:21:54.186Z,13.07
2023-03-14T11:22:54.156Z,13.09
2023-03-14T11:23:54.181Z,13.14
2023-03-14T11:24:54.125Z,13.17
2023-03-14T11:25:54.142Z,13.15
2023-03-14T11:26:54.094Z,13.20
2023-03-14T11:27:54.136Z,13.18
2023-03-14T11:28:54.070Z,13.21
2023-03-14T11:29:54.091Z,13.18
2023-03-14T11:30:54.146Z,13.18
2023-03-14T11:31:54.068Z,13.15
2023-03-14T11:32:54.080Z,13.12
2023-03-14T11:33:54.068Z,13.15
2023-03-14T11:34:54.017Z,13.12
2023-03-14T11:35:54.081Z,13.09
2023-03-14T11:36:54.017Z,13.04
2023-03-14T11:37:54.124Z,12.93
2023-03-14T11:38:53.990Z,12.82
2023-03-14T11:39:54.014Z,12.74
2023-03-14T11:40:53.954Z,12.64
2023-03-14T11:41:54.123Z,12.57
2023-03-14T11:42:53.925Z,12.49
2023-03-14T11:43:53.951Z,12.45
2023-03-14T11:44:53.928Z,12.44
2023-03-14T11:45:54.115Z,12.38
2023-03-14T11:46:53.980Z,12.34
2023-03-14T11:47:53.915Z,12.27
2023-03-14T11:48:53.897Z,12.24
2023-03-14T11:49:53.917Z,12.16
2023-03-14T11:50:53.951Z,12.13
2023-03-14T11:51:53.881Z,12.12
2023-03-14T11:52:53.817Z,12.09
2023-03-14T11:53:53.845Z,12.05
2023-03-14T11:54:53.857Z,12.02
2023-03-14T11:55:53.832Z,11.87
2023-03-14T11:56:53.779Z,11.72
2023-03-14T11:57:53.781Z,11.65
2023-03-14T11:58:53.754Z,11.56
2023-03-14T11:59:53.766Z,11.47
2023-03-14T12:00:53.739Z,11.41
2023-03-14T12:01:53.772Z,11.41
2023-03-14T12:02:53.716Z,11.35
2023-03-14T12:03:53.786Z,11.21
2023-03-14T12:04:53.686Z,11.10
2023-03-14T12:05:53.694Z,11.03
2023-03-14T12:06:53.665Z,10.94
2023-03-14T12:07:53.696Z,10.76
2023-03-14T12:08:53.643Z,10.55
2023-03-14T12:09:53.643Z,10.51
2023-03-14T12:10:53.619Z,10.46
2023-03-14T12:11:53.678Z,10.46
2023-03-14T12:12:53.596Z,10.37
2023-03-14T12:13:53.618Z,10.42
2023-03-14T12:14:53.566Z,10.51
2023-03-14T12:15:53.683Z,10.55
2023-03-14T12:16:56.029Z,10.59
2023-03-14T12:17:53.586Z,10.63
2023-03-14T12:18:53.527Z,10.66
2023-03-14T12:19:53.568Z,10.53
2023-03-14T12:20:53.494Z,10.46
2023-03-14T12:21:53.523Z,10.47
2023-03-14T12:22:53.549Z,10.46
2023-03-14T12:23:53.807Z,10.46
2023-03-14T12:24:53.547Z,10.40
2023-03-14T12:25:53.520Z,10.39
2023-03-14T12:26:53.461Z,10.37
2023-03-14T12:27:53.493Z,10.32
2023-03-14T12:28:53.413Z,10.24
2023-03-14T12:29:53.447Z,10.14
2023-03-14T12:30:53.544Z,10.10
2023-03-14T12:31:53.480Z,10.10
2023-03-14T12:32:53.507Z,10.09
2023-03-14T12:33:53.405Z,10.06
2023-03-14T12:34:53.388Z,10.07
2023-03-14T12:35:53.447Z,10.12
2023-03-14T12:36:53.349Z,10.15
2023-03-14T12:37:54.799Z,10.07
2023-03-14T12:38:54.801Z,10.04
2023-03-14T12:39:54.813Z,10.00
2023-03-14T12:40:53.296Z,9.97
2023-03-14T12:41:53.309Z,9.94
2023-03-14T12:42:53.274Z,9.83
2023-03-14T12:43:53.299Z,9.66
2023-03-14T12:44:53.262Z,9.52
2023-03-14T12:45:53.327Z,9.38
2023-03-14T12:46:53.218Z,9.31
2023-03-14T12:47:53.254Z,9.27
2023-03-14T12:48:53.189Z,9.25
2023-03-14T12:49:53.233Z,9.16
2023-03-14T12:50:53.277Z,8.94
2023-03-14T12:51:53.188Z,8.87
2023-03-14T12:52:54.613Z,8.79